Pagina principale
METAR-TAF:

METAR-TAF

Aeroporti :

Annecy, Francia

latitudine: 45-55-45N, longitudine: 006-05-56E, altezza: 463 m

Osservazione

Il bollettino è stato emesso 38 minuti fa, alle 01:30 UTC
Vento 2 kt da nord
Temperature 7°C
Umidità 76%
Pressione 1029 hPa
Visibilità 10 km o più
Poco nuvoloso ad un'altezza di 5600 ft
Nuvoloso ad un'altezza di 7000 ft

METAR: LFLP 240130Z AUTO 35002KT 9999 FEW056 BKN070 07/03 Q1029

Ora: 03:08 (02:08 UTC)

Previsione

Il bollettino è stato emesso 12 ore e 8 minuti fa, alle 14:00 UTC
Previsione valida dal 23 alle 15 UTC al 24 alle 15 UTC
Vento 2 kt da direzioni variabili
Visibilità 10 km o più
nessuna nube inferiore a 1500 m e nessun cumulonembo
Probabilità 30%
dal 24 alle 03 UTC al 24 alle 08 UTC
Visibilità: 3000 m
Nuvoloso ad un'altezza di 700 ft
foschia
Temporaneamente
dal 24 alle 12 UTC al 24 alle 15 UTC
Vento 7 kt da sud-ovest

TAF: LFLP 231400Z 2315/2415 VRB02KT CAVOK PROB30 2403/2408 3000 BR BKN007 TEMPO 2412/2415 23007KT

Osservazioni e previsioni meteorologiche di più di 4000 aeroporti (messaggi METAR e TAF).

Le stazioni disponibili sono rappresentate dai dischi gialli e rossi sulla carta.

Puntare il mouse per vedere il nome della stazione.

Clicca sopra per visualizzare le osservazioni e previsioni meteorologiche.

Per cambiare la mappa : fare clic sui pulsanti verdi con una croce nera per ingrandire, il pulsante verde con un trattino per diminuire, o sulla freccia verde per le mappe adiacenti.


METAR-TAF: